sensor_id;sensor_type;location;lat;lon;timestamp;temperature;humidity
40516;DHT22;26216;53.724;9.898;2023-04-03T00:00:50;2.90;90.00
40516;DHT22;26216;53.724;9.898;2023-04-03T00:03:17;2.90;90.10
40516;DHT22;26216;53.724;9.898;2023-04-03T00:05:43;2.90;90.10
40516;DHT22;26216;53.724;9.898;2023-04-03T00:08:09;2.90;90.10
40516;DHT22;26216;53.724;9.898;2023-04-03T00:10:36;2.90;90.20
40516;DHT22;26216;53.724;9.898;2023-04-03T00:13:03;2.90;90.20
40516;DHT22;26216;53.724;9.898;2023-04-03T00:15:30;2.90;90.30
40516;DHT22;26216;53.724;9.898;2023-04-03T00:17:56;2.90;90.30
40516;DHT22;26216;53.724;9.898;2023-04-03T00:20:22;2.80;90.30
40516;DHT22;26216;53.724;9.898;2023-04-03T00:22:48;2.80;90.30
40516;DHT22;26216;53.724;9.898;2023-04-03T00:25:14;2.80;90.30
40516;DHT22;26216;53.724;9.898;2023-04-03T00:27:40;2.80;90.30
40516;DHT22;26216;53.724;9.898;2023-04-03T00:30:08;2.70;90.30
40516;DHT22;26216;53.724;9.898;2023-04-03T00:32:35;2.70;90.30
40516;DHT22;26216;53.724;9.898;2023-04-03T00:35:01;2.70;90.30
40516;DHT22;26216;53.724;9.898;2023-04-03T00:37:27;2.60;90.30
40516;DHT22;26216;53.724;9.898;2023-04-03T00:39:53;2.70;90.40
40516;DHT22;26216;53.724;9.898;2023-04-03T00:42:18;2.60;90.40
40516;DHT22;26216;53.724;9.898;2023-04-03T00:47:16;2.60;90.40
40516;DHT22;26216;53.724;9.898;2023-04-03T00:49:43;2.50;90.40
40516;DHT22;26216;53.724;9.898;2023-04-03T00:52:13;2.50;90.50
40516;DHT22;26216;53.724;9.898;2023-04-03T00:54:41;2.50;90.50
40516;DHT22;26216;53.724;9.898;2023-04-03T00:57:07;2.50;90.60
40516;DHT22;26216;53.724;9.898;2023-04-03T00:59:37;2.50;90.60
40516;DHT22;26216;53.724;9.898;2023-04-03T01:02:04;2.50;90.80
40516;DHT22;26216;53.724;9.898;2023-04-03T01:04:38;2.50;90.60
40516;DHT22;26216;53.724;9.898;2023-04-03T01:07:10;2.40;90.60
40516;DHT22;26216;53.724;9.898;2023-04-03T01:09:38;2.50;90.60
40516;DHT22;26216;53.724;9.898;2023-04-03T01:14:44;2.40;90.60
40516;DHT22;26216;53.724;9.898;2023-04-03T01:17:28;2.40;90.60
40516;DHT22;26216;53.724;9.898;2023-04-03T01:25:31;2.30;90.70
40516;DHT22;26216;53.724;9.898;2023-04-03T01:27:58;2.30;90.70
40516;DHT22;26216;53.724;9.898;2023-04-03T01:30:32;2.30;90.80
40516;DHT22;26216;53.724;9.898;2023-04-03T01:32:58;2.20;90.80
40516;DHT22;26216;53.724;9.898;2023-04-03T01:35:24;2.20;90.70
40516;DHT22;26216;53.724;9.898;2023-04-03T01:37:50;2.20;90.80
40516;DHT22;26216;53.724;9.898;2023-04-03T01:40:16;2.20;90.80
40516;DHT22;26216;53.724;9.898;2023-04-03T01:42:42;2.20;90.80
40516;DHT22;26216;53.724;9.898;2023-04-03T01:45:08;2.20;90.80
40516;DHT22;26216;53.724;9.898;2023-04-03T01:47:34;2.20;90.80
40516;DHT22;26216;53.724;9.898;2023-04-03T01:50:00;2.20;90.90
40516;DHT22;26216;53.724;9.898;2023-04-03T01:52:26;2.20;90.90
40516;DHT22;26216;53.724;9.898;2023-04-03T01:54:52;2.20;90.90
40516;DHT22;26216;53.724;9.898;2023-04-03T01:57:17;2.20;91.00
40516;DHT22;26216;53.724;9.898;2023-04-03T01:59:43;2.10;91.00
40516;DHT22;26216;53.724;9.898;2023-04-03T02:02:09;2.10;91.10
40516;DHT22;26216;53.724;9.898;2023-04-03T02:04:38;2.10;90.90
40516;DHT22;26216;53.724;9.898;2023-04-03T02:07:03;2.10;90.90
40516;DHT22;26216;53.724;9.898;2023-04-03T02:09:30;2.10;91.00
40516;DHT22;26216;53.724;9.898;2023-04-03T02:11:56;2.10;91.00
40516;DHT22;26216;53.724;9.898;2023-04-03T02:14:21;2.10;91.00
40516;DHT22;26216;53.724;9.898;2023-04-03T02:16:49;2.10;91.00
40516;DHT22;26216;53.724;9.898;2023-04-03T02:19:15;2.00;90.90
40516;DHT22;26216;53.724;9.898;2023-04-03T02:21:41;2.00;91.00
40516;DHT22;26216;53.724;9.898;2023-04-03T02:24:07;2.00;91.00
40516;DHT22;26216;53.724;9.898;2023-04-03T02:26:33;2.00;91.00
40516;DHT22;26216;53.724;9.898;2023-04-03T02:28:59;2.00;91.10
40516;DHT22;26216;53.724;9.898;2023-04-03T02:31:25;2.00;91.10
40516;DHT22;26216;53.724;9.898;2023-04-03T02:33:51;2.00;91.10
40516;DHT22;26216;53.724;9.898;2023-04-03T02:36:17;2.00;91.10
40516;DHT22;26216;53.724;9.898;2023-04-03T02:38:43;1.90;91.00
40516;DHT22;26216;53.724;9.898;2023-04-03T02:41:10;1.90;91.10
40516;DHT22;26216;53.724;9.898;2023-04-03T02:43:37;1.90;91.10
40516;DHT22;26216;53.724;9.898;2023-04-03T02:46:03;1.90;91.10
40516;DHT22;26216;53.724;9.898;2023-04-03T02:48:29;1.90;91.10
40516;DHT22;26216;53.724;9.898;2023-04-03T02:50:55;1.90;91.20
40516;DHT22;26216;53.724;9.898;2023-04-03T02:53:21;1.90;91.20
40516;DHT22;26216;53.724;9.898;2023-04-03T02:55:47;1.90;91.30
40516;DHT22;26216;53.724;9.898;2023-04-03T02:58:13;1.90;91.30
40516;DHT22;26216;53.724;9.898;2023-04-03T03:00:40;1.90;91.40
40516;DHT22;26216;53.724;9.898;2023-04-03T03:03:06;1.90;91.40
40516;DHT22;26216;53.724;9.898;2023-04-03T03:05:32;1.90;91.50
40516;DHT22;26216;53.724;9.898;2023-04-03T03:07:58;1.90;91.40
40516;DHT22;26216;53.724;9.898;2023-04-03T03:10:27;1.90;91.50
40516;DHT22;26216;53.724;9.898;2023-04-03T03:12:55;1.90;91.50
40516;DHT22;26216;53.724;9.898;2023-04-03T03:15:24;1.90;91.50
40516;DHT22;26216;53.724;9.898;2023-04-03T03:17:50;2.00;91.40
40516;DHT22;26216;53.724;9.898;2023-04-03T03:20:16;1.90;91.40
40516;DHT22;26216;53.724;9.898;2023-04-03T03:22:42;1.90;91.40
40516;DHT22;26216;53.724;9.898;2023-04-03T03:25:08;1.90;91.50
40516;DHT22;26216;53.724;9.898;2023-04-03T03:27:34;1.90;91.40
40516;DHT22;26216;53.724;9.898;2023-04-03T03:30:00;1.90;91.50
40516;DHT22;26216;53.724;9.898;2023-04-03T03:32:26;1.90;91.50
40516;DHT22;26216;53.724;9.898;2023-04-03T03:34:52;1.90;91.50
40516;DHT22;26216;53.724;9.898;2023-04-03T03:37:18;1.90;91.50
40516;DHT22;26216;53.724;9.898;2023-04-03T03:39:43;1.90;91.60
40516;DHT22;26216;53.724;9.898;2023-04-03T03:42:09;1.90;91.50
40516;DHT22;26216;53.724;9.898;2023-04-03T03:44:35;1.90;91.50
40516;DHT22;26216;53.724;9.898;2023-04-03T03:47:01;1.80;91.50
40516;DHT22;26216;53.724;9.898;2023-04-03T03:49:27;1.80;91.40
40516;DHT22;26216;53.724;9.898;2023-04-03T03:51:52;1.80;91.40
40516;DHT22;26216;53.724;9.898;2023-04-03T03:54:18;1.80;91.50
40516;DHT22;26216;53.724;9.898;2023-04-03T03:56:44;1.70;91.40
40516;DHT22;26216;53.724;9.898;2023-04-03T03:59:11;1.80;91.50
40516;DHT22;26216;53.724;9.898;2023-04-03T04:01:38;1.70;91.50
40516;DHT22;26216;53.724;9.898;2023-04-03T04:04:03;1.70;91.50
40516;DHT22;26216;53.724;9.898;2023-04-03T04:06:30;1.70;91.50
40516;DHT22;26216;53.724;9.898;2023-04-03T04:08:56;1.70;91.60
40516;DHT22;26216;53.724;9.898;2023-04-03T04:11:21;1.70;91.60
40516;DHT22;26216;53.724;9.898;2023-04-03T04:13:47;1.70;91.50
40516;DHT22;26216;53.724;9.898;2023-04-03T04:16:13;1.70;91.50
40516;DHT22;26216;53.724;9.898;2023-04-03T04:18:39;1.70;91.50
40516;DHT22;26216;53.724;9.898;2023-04-03T04:21:05;1.60;91.70
40516;DHT22;26216;53.724;9.898;2023-04-03T04:23:31;1.60;91.40
40516;DHT22;26216;53.724;9.898;2023-04-03T04:25:57;1.60;91.40
40516;DHT22;26216;53.724;9.898;2023-04-03T04:28:22;1.60;91.50
40516;DHT22;26216;53.724;9.898;2023-04-03T04:30:48;1.50;91.50
40516;DHT22;26216;53.724;9.898;2023-04-03T04:33:14;1.50;91.50
40516;DHT22;26216;53.724;9.898;2023-04-03T04:35:42;1.50;91.50
40516;DHT22;26216;53.724;9.898;2023-04-03T04:38:09;1.50;91.50
40516;DHT22;26216;53.724;9.898;2023-04-03T04:40:35;1.50;91.50
40516;DHT22;26216;53.724;9.898;2023-04-03T04:43:01;1.50;91.50
40516;DHT22;26216;53.724;9.898;2023-04-03T04:45:27;1.40;91.60
40516;DHT22;26216;53.724;9.898;2023-04-03T04:47:55;1.40;91.60
40516;DHT22;26216;53.724;9.898;2023-04-03T04:50:21;1.40;91.60
40516;DHT22;26216;53.724;9.898;2023-04-03T04:52:47;1.40;91.60
40516;DHT22;26216;53.724;9.898;2023-04-03T04:55:13;1.40;91.60
40516;DHT22;26216;53.724;9.898;2023-04-03T04:57:38;1.40;91.60
40516;DHT22;26216;53.724;9.898;2023-04-03T05:00:05;1.40;91.60
40516;DHT22;26216;53.724;9.898;2023-04-03T05:02:31;1.30;91.60
40516;DHT22;26216;53.724;9.898;2023-04-03T05:04:57;1.40;91.60
40516;DHT22;26216;53.724;9.898;2023-04-03T05:07:23;1.40;91.60
40516;DHT22;26216;53.724;9.898;2023-04-03T05:09:49;1.30;91.60
40516;DHT22;26216;53.724;9.898;2023-04-03T05:12:16;1.30;91.70
40516;DHT22;26216;53.724;9.898;2023-04-03T05:14:42;1.30;91.70
40516;DHT22;26216;53.724;9.898;2023-04-03T05:17:07;1.30;91.70
40516;DHT22;26216;53.724;9.898;2023-04-03T05:19:33;1.30;91.70
40516;DHT22;26216;53.724;9.898;2023-04-03T05:21:59;1.30;91.70
40516;DHT22;26216;53.724;9.898;2023-04-03T05:24:25;1.30;91.80
40516;DHT22;26216;53.724;9.898;2023-04-03T05:26:51;1.30;91.80
40516;DHT22;26216;53.724;9.898;2023-04-03T05:29:17;1.30;91.90
40516;DHT22;26216;53.724;9.898;2023-04-03T05:31:43;1.30;91.90
40516;DHT22;26216;53.724;9.898;2023-04-03T05:34:09;1.30;91.90
40516;DHT22;26216;53.724;9.898;2023-04-03T05:36:35;1.30;92.00
40516;DHT22;26216;53.724;9.898;2023-04-03T05:39:01;1.40;92.10
40516;DHT22;26216;53.724;9.898;2023-04-03T05:41:27;1.40;92.10
40516;DHT22;26216;53.724;9.898;2023-04-03T05:43:52;1.40;92.20
40516;DHT22;26216;53.724;9.898;2023-04-03T05:46:19;1.40;92.20
40516;DHT22;26216;53.724;9.898;2023-04-03T05:48:46;1.50;92.30
40516;DHT22;26216;53.724;9.898;2023-04-03T05:51:19;1.50;92.30
40516;DHT22;26216;53.724;9.898;2023-04-03T05:53:46;1.50;92.40
40516;DHT22;26216;53.724;9.898;2023-04-03T05:56:13;1.50;92.40
40516;DHT22;26216;53.724;9.898;2023-04-03T05:58:38;1.60;92.50
40516;DHT22;26216;53.724;9.898;2023-04-03T06:01:04;1.60;92.60
40516;DHT22;26216;53.724;9.898;2023-04-03T06:03:31;1.70;92.70
40516;DHT22;26216;53.724;9.898;2023-04-03T06:05:57;1.80;92.80
40516;DHT22;26216;53.724;9.898;2023-04-03T06:08:23;1.80;92.90
40516;DHT22;26216;53.724;9.898;2023-04-03T06:10:49;1.90;92.90
40516;DHT22;26216;53.724;9.898;2023-04-03T06:13:17;2.00;93.00
40516;DHT22;26216;53.724;9.898;2023-04-03T06:15:42;2.00;93.10
40516;DHT22;26216;53.724;9.898;2023-04-03T06:18:09;2.10;93.20
40516;DHT22;26216;53.724;9.898;2023-04-03T06:20:35;2.20;93.70
40516;DHT22;26216;53.724;9.898;2023-04-03T06:23:01;2.20;93.50
40516;DHT22;26216;53.724;9.898;2023-04-03T06:25:26;2.30;93.60
40516;DHT22;26216;53.724;9.898;2023-04-03T06:27:53;2.40;93.60
40516;DHT22;26216;53.724;9.898;2023-04-03T06:30:21;2.40;93.80
40516;DHT22;26216;53.724;9.898;2023-04-03T06:32:47;2.50;93.90
40516;DHT22;26216;53.724;9.898;2023-04-03T06:35:13;2.60;94.30
40516;DHT22;26216;53.724;9.898;2023-04-03T06:37:39;2.70;94.00
40516;DHT22;26216;53.724;9.898;2023-04-03T06:40:06;2.80;94.10
40516;DHT22;26216;53.724;9.898;2023-04-03T06:42:32;2.80;94.00
40516;DHT22;26216;53.724;9.898;2023-04-03T06:44:58;2.90;94.10
40516;DHT22;26216;53.724;9.898;2023-04-03T06:47:24;3.00;94.30
40516;DHT22;26216;53.724;9.898;2023-04-03T06:49:50;3.10;94.20
40516;DHT22;26216;53.724;9.898;2023-04-03T06:52:16;3.20;94.60
40516;DHT22;26216;53.724;9.898;2023-04-03T06:54:42;3.30;94.80
40516;DHT22;26216;53.724;9.898;2023-04-03T06:57:07;3.30;95.00
40516;DHT22;26216;53.724;9.898;2023-04-03T06:59:34;3.40;94.70
40516;DHT22;26216;53.724;9.898;2023-04-03T07:02:00;3.50;95.30
40516;DHT22;26216;53.724;9.898;2023-04-03T07:04:26;3.60;95.20
40516;DHT22;26216;53.724;9.898;2023-04-03T07:06:52;3.70;94.90
40516;DHT22;26216;53.724;9.898;2023-04-03T07:09:18;3.90;94.80
40516;DHT22;26216;53.724;9.898;2023-04-03T07:11:45;4.00;94.90
40516;DHT22;26216;53.724;9.898;2023-04-03T07:14:11;4.00;95.20
40516;DHT22;26216;53.724;9.898;2023-04-03T07:16:37;4.10;95.30
40516;DHT22;26216;53.724;9.898;2023-04-03T07:19:03;4.20;95.20
40516;DHT22;26216;53.724;9.898;2023-04-03T07:21:29;4.30;95.20
40516;DHT22;26216;53.724;9.898;2023-04-03T07:23:55;4.40;95.10
40516;DHT22;26216;53.724;9.898;2023-04-03T07:26:23;4.50;95.00
40516;DHT22;26216;53.724;9.898;2023-04-03T07:28:49;4.60;94.90
40516;DHT22;26216;53.724;9.898;2023-04-03T07:31:16;4.70;94.80
40516;DHT22;26216;53.724;9.898;2023-04-03T07:33:43;4.80;94.70
40516;DHT22;26216;53.724;9.898;2023-04-03T07:36:12;4.90;94.50
40516;DHT22;26216;53.724;9.898;2023-04-03T07:38:40;5.00;94.40
40516;DHT22;26216;53.724;9.898;2023-04-03T07:41:06;5.20;94.30
40516;DHT22;26216;53.724;9.898;2023-04-03T07:43:32;5.30;94.20
40516;DHT22;26216;53.724;9.898;2023-04-03T07:46:00;5.40;94.10
40516;DHT22;26216;53.724;9.898;2023-04-03T07:48:26;5.50;93.80
40516;DHT22;26216;53.724;9.898;2023-04-03T07:50:52;5.60;93.70
40516;DHT22;26216;53.724;9.898;2023-04-03T07:53:18;5.70;93.80
40516;DHT22;26216;53.724;9.898;2023-04-03T07:55:49;5.80;93.60
40516;DHT22;26216;53.724;9.898;2023-04-03T07:58:18;5.90;93.10
40516;DHT22;26216;53.724;9.898;2023-04-03T08:00:44;6.00;93.20
40516;DHT22;26216;53.724;9.898;2023-04-03T08:03:11;6.20;92.90
40516;DHT22;26216;53.724;9.898;2023-04-03T08:05:38;6.30;92.90
40516;DHT22;26216;53.724;9.898;2023-04-03T08:08:06;6.40;93.00
40516;DHT22;26216;53.724;9.898;2023-04-03T08:10:33;6.50;92.90
40516;DHT22;26216;53.724;9.898;2023-04-03T08:13:00;6.60;92.70
40516;DHT22;26216;53.724;9.898;2023-04-03T08:15:26;6.70;92.00
40516;DHT22;26216;53.724;9.898;2023-04-03T08:17:56;6.70;92.40
40516;DHT22;26216;53.724;9.898;2023-04-03T08:20:22;6.90;92.50
40516;DHT22;26216;53.724;9.898;2023-04-03T08:22:48;6.90;92.50
40516;DHT22;26216;53.724;9.898;2023-04-03T08:25:13;7.10;92.50
40516;DHT22;26216;53.724;9.898;2023-04-03T08:27:40;7.10;92.30
40516;DHT22;26216;53.724;9.898;2023-04-03T08:30:06;7.30;92.30
40516;DHT22;26216;53.724;9.898;2023-04-03T08:32:36;7.40;92.30
40516;DHT22;26216;53.724;9.898;2023-04-03T08:35:03;7.40;92.20
40516;DHT22;26216;53.724;9.898;2023-04-03T08:37:29;7.40;92.20
40516;DHT22;26216;53.724;9.898;2023-04-03T08:39:55;7.50;92.10
40516;DHT22;26216;53.724;9.898;2023-04-03T08:48:03;7.70;91.80
40516;DHT22;26216;53.724;9.898;2023-04-03T08:50:41;7.80;91.60
40516;DHT22;26216;53.724;9.898;2023-04-03T08:53:15;7.90;91.20
40516;DHT22;26216;53.724;9.898;2023-04-03T08:56:04;8.00;91.90
40516;DHT22;26216;53.724;9.898;2023-04-03T08:58:43;8.10;91.00
40516;DHT22;26216;53.724;9.898;2023-04-03T09:01:25;8.20;91.40
40516;DHT22;26216;53.724;9.898;2023-04-03T09:03:52;8.30;91.00
40516;DHT22;26216;53.724;9.898;2023-04-03T09:06:27;8.40;91.00
40516;DHT22;26216;53.724;9.898;2023-04-03T09:09:15;8.50;91.20
40516;DHT22;26216;53.724;9.898;2023-04-03T09:12:05;8.50;90.00
40516;DHT22;26216;53.724;9.898;2023-04-03T09:17:21;8.70;90.40
40516;DHT22;26216;53.724;9.898;2023-04-03T09:19:58;8.80;90.00
40516;DHT22;26216;53.724;9.898;2023-04-03T09:22:31;8.90;90.10
40516;DHT22;26216;53.724;9.898;2023-04-03T09:25:10;9.00;88.90
40516;DHT22;26216;53.724;9.898;2023-04-03T09:27:37;9.10;89.10
40516;DHT22;26216;53.724;9.898;2023-04-03T09:30:03;9.20;90.10
40516;DHT22;26216;53.724;9.898;2023-04-03T09:32:31;9.30;89.80
40516;DHT22;26216;53.724;9.898;2023-04-03T09:35:01;9.30;89.60
40516;DHT22;26216;53.724;9.898;2023-04-03T09:37:43;9.50;89.20
40516;DHT22;26216;53.724;9.898;2023-04-03T09:40:29;9.60;89.30
40516;DHT22;26216;53.724;9.898;2023-04-03T09:43:43;9.70;88.30
40516;DHT22;26216;53.724;9.898;2023-04-03T09:45:44;9.80;86.20
40516;DHT22;26216;53.724;9.898;2023-04-03T09:50:55;10.00;86.10
40516;DHT22;26216;53.724;9.898;2023-04-03T09:55:59;10.10;83.70
40516;DHT22;26216;53.724;9.898;2023-04-03T09:58:35;10.10;78.00
40516;DHT22;26216;53.724;9.898;2023-04-03T10:01:03;10.00;81.50
40516;DHT22;26216;53.724;9.898;2023-04-03T10:03:32;10.00;81.50
40516;DHT22;26216;53.724;9.898;2023-04-03T10:05:58;10.00;81.40
40516;DHT22;26216;53.724;9.898;2023-04-03T10:08:30;10.00;81.90
40516;DHT22;26216;53.724;9.898;2023-04-03T10:11:06;9.90;83.00
40516;DHT22;26216;53.724;9.898;2023-04-03T10:13:33;9.90;82.20
40516;DHT22;26216;53.724;9.898;2023-04-03T10:16:12;9.90;82.60
40516;DHT22;26216;53.724;9.898;2023-04-03T10:21:45;10.00;81.20
40516;DHT22;26216;53.724;9.898;2023-04-03T10:24:36;10.00;80.70
40516;DHT22;26216;53.724;9.898;2023-04-03T10:27:17;10.00;81.90
40516;DHT22;26216;53.724;9.898;2023-04-03T10:30:08;10.10;81.30
40516;DHT22;26216;53.724;9.898;2023-04-03T10:32:48;10.10;79.80
40516;DHT22;26216;53.724;9.898;2023-04-03T10:35:39;10.10;75.70
40516;DHT22;26216;53.724;9.898;2023-04-03T10:41:02;10.10;77.60
40516;DHT22;26216;53.724;9.898;2023-04-03T10:43:46;10.10;77.10
40516;DHT22;26216;53.724;9.898;2023-04-03T10:46:23;10.00;74.40
40516;DHT22;26216;53.724;9.898;2023-04-03T10:51:45;9.90;75.90
40516;DHT22;26216;53.724;9.898;2023-04-03T10:54:18;9.80;76.10
40516;DHT22;26216;53.724;9.898;2023-04-03T10:56:57;9.80;76.20
40516;DHT22;26216;53.724;9.898;2023-04-03T11:02:28;9.80;77.90
40516;DHT22;26216;53.724;9.898;2023-04-03T11:05:04;9.80;78.80
40516;DHT22;26216;53.724;9.898;2023-04-03T11:07:39;9.80;77.10
40516;DHT22;26216;53.724;9.898;2023-04-03T11:10:21;9.80;78.30
40516;DHT22;26216;53.724;9.898;2023-04-03T11:13:19;9.90;77.50
40516;DHT22;26216;53.724;9.898;2023-04-03T11:15:43;10.00;78.40
40516;DHT22;26216;53.724;9.898;2023-04-03T11:18:42;10.00;75.30
40516;DHT22;26216;53.724;9.898;2023-04-03T11:21:20;10.00;75.50
40516;DHT22;26216;53.724;9.898;2023-04-03T11:23:48;10.10;76.40
40516;DHT22;26216;53.724;9.898;2023-04-03T11:26:19;10.10;76.20
40516;DHT22;26216;53.724;9.898;2023-04-03T11:28:46;10.20;74.80
40516;DHT22;26216;53.724;9.898;2023-04-03T11:31:38;10.20;74.70
40516;DHT22;26216;53.724;9.898;2023-04-03T11:34:30;10.30;72.90
40516;DHT22;26216;53.724;9.898;2023-04-03T11:37:00;10.30;74.10
40516;DHT22;26216;53.724;9.898;2023-04-03T11:39:32;10.30;74.30
40516;DHT22;26216;53.724;9.898;2023-04-03T11:42:15;10.30;75.00
40516;DHT22;26216;53.724;9.898;2023-04-03T11:44:42;10.30;72.70
40516;DHT22;26216;53.724;9.898;2023-04-03T11:47:11;10.30;74.40
40516;DHT22;26216;53.724;9.898;2023-04-03T11:50:03;10.30;75.30
40516;DHT22;26216;53.724;9.898;2023-04-03T11:52:54;10.40;75.30
40516;DHT22;26216;53.724;9.898;2023-04-03T11:58:04;10.40;76.60
40516;DHT22;26216;53.724;9.898;2023-04-03T12:05:56;10.60;75.80
40516;DHT22;26216;53.724;9.898;2023-04-03T12:16:08;10.80;74.30
40516;DHT22;26216;53.724;9.898;2023-04-03T12:18:56;10.80;74.50
40516;DHT22;26216;53.724;9.898;2023-04-03T12:24:22;11.00;75.10
40516;DHT22;26216;53.724;9.898;2023-04-03T12:41:15;11.50;73.40
40516;DHT22;26216;53.724;9.898;2023-04-03T12:44:21;11.60;73.20
40516;DHT22;26216;53.724;9.898;2023-04-03T12:46:52;11.60;71.30
40516;DHT22;26216;53.724;9.898;2023-04-03T12:49:33;11.50;72.70
40516;DHT22;26216;53.724;9.898;2023-04-03T12:52:00;11.60;73.80
40516;DHT22;26216;53.724;9.898;2023-04-03T12:54:37;11.60;72.90
40516;DHT22;26216;53.724;9.898;2023-04-03T12:59:44;11.50;71.60
40516;DHT22;26216;53.724;9.898;2023-04-03T13:02:31;11.60;72.80
40516;DHT22;26216;53.724;9.898;2023-04-03T13:05:06;11.60;73.20
40516;DHT22;26216;53.724;9.898;2023-04-03T13:07:34;11.70;73.50
40516;DHT22;26216;53.724;9.898;2023-04-03T13:12:47;11.80;71.80
40516;DHT22;26216;53.724;9.898;2023-04-03T13:15:45;11.90;72.70
40516;DHT22;26216;53.724;9.898;2023-04-03T13:18:32;11.90;71.80
40516;DHT22;26216;53.724;9.898;2023-04-03T13:21:28;12.00;72.00
40516;DHT22;26216;53.724;9.898;2023-04-03T13:23:57;12.10;72.10
40516;DHT22;26216;53.724;9.898;2023-04-03T13:26:28;12.20;72.70
40516;DHT22;26216;53.724;9.898;2023-04-03T13:28:58;12.30;71.20
40516;DHT22;26216;53.724;9.898;2023-04-03T13:31:29;12.30;70.90
40516;DHT22;26216;53.724;9.898;2023-04-03T13:34:27;12.40;71.90
40516;DHT22;26216;53.724;9.898;2023-04-03T13:39:31;12.50;69.00
40516;DHT22;26216;53.724;9.898;2023-04-03T13:42:00;12.50;69.10
40516;DHT22;26216;53.724;9.898;2023-04-03T13:44:35;12.50;70.20
40516;DHT22;26216;53.724;9.898;2023-04-03T13:47:19;12.50;70.60
40516;DHT22;26216;53.724;9.898;2023-04-03T13:50:19;12.50;70.10
40516;DHT22;26216;53.724;9.898;2023-04-03T13:53:11;12.50;70.50
40516;DHT22;26216;53.724;9.898;2023-04-03T13:58:26;12.40;71.30
40516;DHT22;26216;53.724;9.898;2023-04-03T14:01:17;12.40;69.10
40516;DHT22;26216;53.724;9.898;2023-04-03T14:04:00;12.50;70.50
40516;DHT22;26216;53.724;9.898;2023-04-03T14:06:27;12.40;70.30
40516;DHT22;26216;53.724;9.898;2023-04-03T14:08:53;12.40;70.30
40516;DHT22;26216;53.724;9.898;2023-04-03T14:11:22;12.40;70.10
40516;DHT22;26216;53.724;9.898;2023-04-03T14:13:50;12.30;69.50
40516;DHT22;26216;53.724;9.898;2023-04-03T14:16:23;12.20;68.40
40516;DHT22;26216;53.724;9.898;2023-04-03T14:18:51;12.20;70.30
40516;DHT22;26216;53.724;9.898;2023-04-03T14:21:19;12.10;69.20
40516;DHT22;26216;53.724;9.898;2023-04-03T14:23:45;12.00;68.40
40516;DHT22;26216;53.724;9.898;2023-04-03T14:26:19;12.10;70.40
40516;DHT22;26216;53.724;9.898;2023-04-03T14:28:48;12.00;71.40
40516;DHT22;26216;53.724;9.898;2023-04-03T14:31:15;12.10;72.60
40516;DHT22;26216;53.724;9.898;2023-04-03T14:33:42;12.10;72.30
40516;DHT22;26216;53.724;9.898;2023-04-03T14:36:17;12.10;69.90
40516;DHT22;26216;53.724;9.898;2023-04-03T14:38:44;12.20;70.80
40516;DHT22;26216;53.724;9.898;2023-04-03T14:41:13;12.20;70.80
40516;DHT22;26216;53.724;9.898;2023-04-03T14:43:41;12.20;69.50
40516;DHT22;26216;53.724;9.898;2023-04-03T14:46:34;12.20;70.10
40516;DHT22;26216;53.724;9.898;2023-04-03T14:49:01;12.20;70.20
40516;DHT22;26216;53.724;9.898;2023-04-03T14:51:27;12.10;67.90
40516;DHT22;26216;53.724;9.898;2023-04-03T14:53:54;12.10;68.20
40516;DHT22;26216;53.724;9.898;2023-04-03T14:56:28;12.10;68.80
40516;DHT22;26216;53.724;9.898;2023-04-03T14:59:00;12.00;68.20
40516;DHT22;26216;53.724;9.898;2023-04-03T15:01:27;12.00;67.60
40516;DHT22;26216;53.724;9.898;2023-04-03T15:03:54;11.90;66.10
40516;DHT22;26216;53.724;9.898;2023-04-03T15:06:20;11.80;68.80
40516;DHT22;26216;53.724;9.898;2023-04-03T15:08:48;11.80;69.10
40516;DHT22;26216;53.724;9.898;2023-04-03T15:11:15;11.60;68.80
40516;DHT22;26216;53.724;9.898;2023-04-03T15:13:42;11.60;69.80
40516;DHT22;26216;53.724;9.898;2023-04-03T15:16:17;11.50;70.20
40516;DHT22;26216;53.724;9.898;2023-04-03T15:18:45;11.40;69.90
40516;DHT22;26216;53.724;9.898;2023-04-03T15:21:12;11.40;70.20
40516;DHT22;26216;53.724;9.898;2023-04-03T15:23:38;11.30;70.50
40516;DHT22;26216;53.724;9.898;2023-04-03T15:26:05;11.30;69.40
40516;DHT22;26216;53.724;9.898;2023-04-03T15:28:38;11.20;70.30
40516;DHT22;26216;53.724;9.898;2023-04-03T15:31:06;11.10;70.00
40516;DHT22;26216;53.724;9.898;2023-04-03T15:33:34;11.10;70.50
40516;DHT22;26216;53.724;9.898;2023-04-03T15:36:00;11.10;71.40
40516;DHT22;26216;53.724;9.898;2023-04-03T15:38:26;11.10;72.20
40516;DHT22;26216;53.724;9.898;2023-04-03T15:40:54;11.10;72.70
40516;DHT22;26216;53.724;9.898;2023-04-03T15:43:21;11.20;71.20
40516;DHT22;26216;53.724;9.898;2023-04-03T15:45:48;11.30;71.80
40516;DHT22;26216;53.724;9.898;2023-04-03T15:48:15;11.30;71.40
40516;DHT22;26216;53.724;9.898;2023-04-03T15:50:42;11.40;71.00
40516;DHT22;26216;53.724;9.898;2023-04-03T15:53:08;11.40;71.10
40516;DHT22;26216;53.724;9.898;2023-04-03T15:55:36;11.40;70.20
40516;DHT22;26216;53.724;9.898;2023-04-03T15:58:04;11.40;69.90
40516;DHT22;26216;53.724;9.898;2023-04-03T16:00:30;11.40;69.60
40516;DHT22;26216;53.724;9.898;2023-04-03T16:03:05;11.30;69.40
40516;DHT22;26216;53.724;9.898;2023-04-03T16:05:32;11.20;68.70
40516;DHT22;26216;53.724;9.898;2023-04-03T16:08:00;11.10;69.70
40516;DHT22;26216;53.724;9.898;2023-04-03T16:10:26;11.10;69.70
40516;DHT22;26216;53.724;9.898;2023-04-03T16:12:52;11.00;69.30
40516;DHT22;26216;53.724;9.898;2023-04-03T16:15:19;10.90;70.10
40516;DHT22;26216;53.724;9.898;2023-04-03T16:17:45;10.90;69.60
40516;DHT22;26216;53.724;9.898;2023-04-03T16:20:14;10.90;69.50
40516;DHT22;26216;53.724;9.898;2023-04-03T16:22:40;10.90;70.00
40516;DHT22;26216;53.724;9.898;2023-04-03T16:25:07;10.80;69.80
40516;DHT22;26216;53.724;9.898;2023-04-03T16:27:34;10.80;70.60
40516;DHT22;26216;53.724;9.898;2023-04-03T16:30:00;10.80;71.50
40516;DHT22;26216;53.724;9.898;2023-04-03T16:32:29;10.70;71.30
40516;DHT22;26216;53.724;9.898;2023-04-03T16:34:56;10.60;71.10
40516;DHT22;26216;53.724;9.898;2023-04-03T16:37:23;10.60;71.30
40516;DHT22;26216;53.724;9.898;2023-04-03T16:39:49;10.50;71.50
40516;DHT22;26216;53.724;9.898;2023-04-03T16:42:15;10.40;71.90
40516;DHT22;26216;53.724;9.898;2023-04-03T16:44:41;10.30;71.90
40516;DHT22;26216;53.724;9.898;2023-04-03T16:47:07;10.20;72.00
40516;DHT22;26216;53.724;9.898;2023-04-03T16:49:34;10.20;71.80
40516;DHT22;26216;53.724;9.898;2023-04-03T16:52:04;10.10;71.80
40516;DHT22;26216;53.724;9.898;2023-04-03T16:54:31;10.00;72.30
40516;DHT22;26216;53.724;9.898;2023-04-03T16:56:57;10.00;72.40
40516;DHT22;26216;53.724;9.898;2023-04-03T16:59:23;9.90;72.60
40516;DHT22;26216;53.724;9.898;2023-04-03T17:01:50;9.80;72.80
40516;DHT22;26216;53.724;9.898;2023-04-03T17:04:16;9.80;73.10
40516;DHT22;26216;53.724;9.898;2023-04-03T17:06:42;9.70;73.30
40516;DHT22;26216;53.724;9.898;2023-04-03T17:09:08;9.60;73.40
40516;DHT22;26216;53.724;9.898;2023-04-03T17:11:35;9.60;73.80
40516;DHT22;26216;53.724;9.898;2023-04-03T17:14:01;9.50;73.90